Sligo Airport - TAF
(Terminal Area Forecast)

Issued at 15:21 UTC on Tue. 20-Apr-21

--- METARS(SA) ---

METAR EISG(SLIGO) 201500Z 03011KT 9999 BKN021 BKN026 OVC043 10/06

Q1021 =

--- TAFS() ---

TAF EISG(SLIGO) 201400Z 2015/2024 04009KT 9999 BKN020 TEMPO

2015/2016 4000 -DZ BR BKN007 =

--- SIGMETS(WS) ---

IE - No VALID SIGMETS/Warnings FOR THIS AREA

--- SIGMETS Volcanic(WV) ---

IE - No VALID SIGMETS/Warnings FOR THIS AREA

--- SIGMETS(WS) ---

UK - No VALID SIGMETS/Warnings FOR THIS AREA

Sligo Airport - METARs

Latest METARs for Sligo and Donegal Airports - updated every 30 mins